createdAt,value
2019-05-25T00:02:25.935Z,4.90
2019-05-25T00:04:58.209Z,4.80
2019-05-25T00:07:29.159Z,4.67
2019-05-25T00:10:00.344Z,5.20
2019-05-25T00:12:30.673Z,5.00
2019-05-25T00:15:03.074Z,4.93
2019-05-25T00:17:36.144Z,4.77
2019-05-25T00:20:11.684Z,4.57
2019-05-25T00:22:41.802Z,4.20
2019-05-25T00:25:11.762Z,4.90
2019-05-25T00:27:41.928Z,4.00
2019-05-25T00:30:11.929Z,4.50
2019-05-25T00:32:41.877Z,3.80
2019-05-25T00:35:12.368Z,4.57
2019-05-25T00:37:44.018Z,4.43
2019-05-25T00:40:14.857Z,4.40
2019-05-25T00:42:48.766Z,4.70
2019-05-25T00:45:20.486Z,4.90
2019-05-25T00:47:51.594Z,5.47
2019-05-25T00:50:25.325Z,4.40
2019-05-25T00:52:55.282Z,4.90
2019-05-25T00:55:26.030Z,4.23
2019-05-25T00:57:56.030Z,4.47
2019-05-25T01:00:26.052Z,4.00
2019-05-25T01:02:57.552Z,4.10
2019-05-25T01:05:28.292Z,4.47
2019-05-25T01:07:58.102Z,4.47
2019-05-25T01:10:28.033Z,4.40
2019-05-25T01:12:59.399Z,3.77
2019-05-25T01:15:29.213Z,4.43
2019-05-25T01:18:08.383Z,3.90
2019-05-25T01:23:32.625Z,4.90
2019-05-25T01:26:10.834Z,4.70
2019-05-25T01:28:42.161Z,4.20
2019-05-25T01:31:25.482Z,3.80
2019-05-25T01:33:58.635Z,3.90
2019-05-25T01:36:29.657Z,4.33
2019-05-25T01:39:28.852Z,4.10
2019-05-25T01:42:02.879Z,4.50
2019-05-25T01:44:33.231Z,4.00
2019-05-25T01:51:18.246Z,4.30
2019-05-25T01:53:54.225Z,4.53
2019-05-25T01:56:47.996Z,4.07
2019-05-25T01:59:20.250Z,3.93
2019-05-25T02:02:51.099Z,4.40
2019-05-25T02:05:22.503Z,4.37
2019-05-25T02:08:01.899Z,4.63
2019-05-25T02:10:51.810Z,5.00
2019-05-25T02:13:22.226Z,4.80
2019-05-25T02:15:52.039Z,4.50
2019-05-25T02:19:14.762Z,4.50
2019-05-25T02:21:45.798Z,4.80
2019-05-25T02:25:16.347Z,4.20
2019-05-25T02:31:41.871Z,4.53
2019-05-25T02:37:24.932Z,4.30
2019-05-25T02:39:57.636Z,4.27
2019-05-25T02:46:07.330Z,5.47
2019-05-25T02:48:40.645Z,4.13
2019-05-25T02:51:21.282Z,4.10
2019-05-25T02:53:52.047Z,4.50
2019-05-25T02:56:22.179Z,4.47
2019-05-25T02:58:52.771Z,4.63
2019-05-25T03:01:23.737Z,4.50
2019-05-25T03:03:53.975Z,3.90
2019-05-25T03:06:25.306Z,4.73
2019-05-25T03:08:57.227Z,4.17
2019-05-25T03:11:29.540Z,4.00
2019-05-25T03:14:02.125Z,4.97
2019-05-25T03:16:31.887Z,4.30
2019-05-25T03:19:01.675Z,4.93
2019-05-25T03:21:31.513Z,4.70
2019-05-25T03:24:02.576Z,4.20
2019-05-25T03:26:33.579Z,4.67
2019-05-25T03:29:03.620Z,4.43
2019-05-25T03:31:35.865Z,5.13
2019-05-25T03:34:05.579Z,5.10
2019-05-25T03:36:36.133Z,4.80
2019-05-25T03:39:10.125Z,4.83
2019-05-25T03:41:40.396Z,4.50
2019-05-25T03:44:10.337Z,4.87
2019-05-25T03:46:41.222Z,4.37
2019-05-25T03:49:11.034Z,4.97
2019-05-25T03:51:40.764Z,4.57
2019-05-25T03:54:10.954Z,4.23
2019-05-25T03:56:40.954Z,5.00
2019-05-25T03:59:11.872Z,4.70
2019-05-25T04:01:42.292Z,4.90
2019-05-25T04:04:12.100Z,5.00
2019-05-25T04:06:42.220Z,4.80
2019-05-25T04:09:16.706Z,5.27
2019-05-25T04:11:47.397Z,5.30
2019-05-25T04:14:17.142Z,5.03
2019-05-25T04:16:47.363Z,4.90
2019-05-25T04:19:17.079Z,5.80
2019-05-25T04:21:46.813Z,4.80
2019-05-25T04:24:19.492Z,4.60
2019-05-25T04:26:51.980Z,5.60
2019-05-25T04:29:21.727Z,5.33
2019-05-25T04:31:51.674Z,5.00
2019-05-25T04:34:25.677Z,5.47
2019-05-25T04:36:56.032Z,5.50
2019-05-25T04:39:25.828Z,5.60
2019-05-25T04:41:55.996Z,5.00
2019-05-25T04:44:27.362Z,4.60
2019-05-25T04:46:57.083Z,5.70
2019-05-25T04:49:26.888Z,5.60
2019-05-25T04:51:56.791Z,5.40
2019-05-25T04:54:31.400Z,5.00
2019-05-25T04:57:01.330Z,4.53
2019-05-25T04:59:31.101Z,5.07
2019-05-25T05:02:00.902Z,5.07
2019-05-25T05:04:30.901Z,4.80
2019-05-25T05:07:00.636Z,4.37
2019-05-25T05:09:30.443Z,4.60
2019-05-25T05:12:01.650Z,5.07
2019-05-25T05:14:31.446Z,4.80
2019-05-25T05:17:01.281Z,4.73
2019-05-25T05:19:31.446Z,4.70
2019-05-25T05:22:01.282Z,4.77
2019-05-25T05:24:31.329Z,4.90
2019-05-25T05:27:01.600Z,4.10
2019-05-25T05:29:31.373Z,3.93
2019-05-25T05:32:01.290Z,4.90
2019-05-25T05:34:31.645Z,4.50
2019-05-25T05:37:03.344Z,5.20
2019-05-25T05:39:33.323Z,4.63
2019-05-25T05:42:07.306Z,4.70
2019-05-25T05:44:40.178Z,4.63
2019-05-25T05:47:12.026Z,4.30
2019-05-25T05:49:42.482Z,3.97
2019-05-25T05:52:14.275Z,4.13
2019-05-25T05:54:46.826Z,4.20
2019-05-25T05:57:20.482Z,4.43
2019-05-25T05:59:51.639Z,4.27
2019-05-25T06:02:31.513Z,4.73
2019-05-25T06:05:07.169Z,3.97
2019-05-25T06:07:37.898Z,4.50
2019-05-25T06:10:09.550Z,4.37
2019-05-25T06:12:50.976Z,4.30
2019-05-25T06:15:28.293Z,4.30
2019-05-25T06:17:58.042Z,4.33
2019-05-25T06:20:27.807Z,3.63
2019-05-25T06:22:59.627Z,3.57
2019-05-25T06:25:30.187Z,3.90
2019-05-25T06:28:22.373Z,3.37
2019-05-25T06:30:56.307Z,3.53
2019-05-25T06:33:26.300Z,3.30
2019-05-25T06:35:56.457Z,3.80
2019-05-25T06:38:26.153Z,3.23
2019-05-25T06:40:56.471Z,2.93
2019-05-25T06:43:26.720Z,2.93
2019-05-25T06:46:25.098Z,3.10
2019-05-25T06:48:54.829Z,3.50
2019-05-25T06:51:24.596Z,3.03
2019-05-25T06:53:54.459Z,3.30
2019-05-25T06:56:24.234Z,3.17
2019-05-25T06:58:53.983Z,3.40
2019-05-25T07:01:24.510Z,3.30
2019-05-25T07:03:54.727Z,3.10
2019-05-25T07:06:24.480Z,3.97
2019-05-25T07:08:54.470Z,3.27
2019-05-25T07:11:24.322Z,2.70
2019-05-25T07:14:01.780Z,2.50
2019-05-25T07:16:32.540Z,2.90
2019-05-25T07:19:02.483Z,2.63
2019-05-25T07:21:37.676Z,3.50
2019-05-25T07:24:07.744Z,2.90
2019-05-25T07:26:37.766Z,2.87
2019-05-25T07:29:08.071Z,2.83
2019-05-25T07:31:41.826Z,2.77
2019-05-25T07:34:11.763Z,3.10
2019-05-25T07:36:41.499Z,3.37
2019-05-25T07:39:13.656Z,3.30
2019-05-25T07:41:43.497Z,2.60
2019-05-25T07:44:13.493Z,3.00
2019-05-25T07:46:55.256Z,3.50
2019-05-25T07:49:24.993Z,3.47
2019-05-25T07:51:54.774Z,3.73
2019-05-25T07:54:25.076Z,3.13
2019-05-25T07:56:54.908Z,3.17
2019-05-25T07:59:24.647Z,3.10
2019-05-25T08:01:54.625Z,2.73
2019-05-25T08:04:28.942Z,2.73
2019-05-25T08:06:58.855Z,2.80
2019-05-25T08:09:28.762Z,3.33
2019-05-25T08:11:58.668Z,2.93
2019-05-25T08:14:45.208Z,2.80
2019-05-25T08:17:15.118Z,2.83
2019-05-25T08:19:44.915Z,2.90
2019-05-25T08:22:14.791Z,2.97
2019-05-25T08:24:44.565Z,3.03
2019-05-25T08:27:14.315Z,3.40
2019-05-25T08:29:44.205Z,3.90
2019-05-25T08:32:22.994Z,3.30
2019-05-25T08:34:52.910Z,3.60
2019-05-25T08:37:22.630Z,3.57
2019-05-25T08:39:52.391Z,3.20
2019-05-25T08:42:22.210Z,3.67
2019-05-25T08:44:51.962Z,3.50
2019-05-25T08:47:34.308Z,3.63
2019-05-25T08:50:04.588Z,3.50
2019-05-25T08:52:34.342Z,3.37
2019-05-25T08:55:04.572Z,3.30
2019-05-25T08:57:34.367Z,3.57
2019-05-25T09:00:04.643Z,3.77
2019-05-25T09:02:34.477Z,3.20
2019-05-25T09:05:04.807Z,3.27
2019-05-25T09:07:45.155Z,3.80
2019-05-25T09:10:16.917Z,3.47
2019-05-25T09:12:46.787Z,3.20
2019-05-25T09:15:16.802Z,2.93
2019-05-25T09:17:46.652Z,3.10
2019-05-25T09:20:16.572Z,3.80
2019-05-25T09:22:46.491Z,4.10
2019-05-25T09:25:17.951Z,3.30
2019-05-25T09:27:47.992Z,4.20
2019-05-25T09:30:18.258Z,4.30
2019-05-25T09:32:48.043Z,3.90
2019-05-25T09:35:17.971Z,4.00
2019-05-25T09:37:47.850Z,3.97
2019-05-25T09:40:19.163Z,4.40
2019-05-25T09:42:58.964Z,3.60
2019-05-25T09:45:28.462Z,3.87
2019-05-25T09:47:58.588Z,3.90
2019-05-25T09:50:28.466Z,3.57
2019-05-25T09:52:58.340Z,3.60
2019-05-25T09:55:28.112Z,3.80
2019-05-25T09:57:58.070Z,3.67
2019-05-25T10:00:28.062Z,3.80
2019-05-25T10:03:04.342Z,4.60
2019-05-25T10:05:37.142Z,3.90
2019-05-25T10:08:07.190Z,3.30
2019-05-25T10:10:38.714Z,3.60
2019-05-25T10:13:08.758Z,4.23
2019-05-25T10:15:38.631Z,4.50
2019-05-25T10:18:08.458Z,4.07
2019-05-25T10:20:42.168Z,3.70
2019-05-25T10:23:11.929Z,4.10
2019-05-25T10:25:42.722Z,3.73
2019-05-25T10:28:13.297Z,3.97
2019-05-25T10:30:43.076Z,3.53
2019-05-25T10:33:12.818Z,3.87
2019-05-25T10:35:47.275Z,3.30
2019-05-25T10:38:17.026Z,3.87
2019-05-25T10:40:46.939Z,3.07
2019-05-25T10:43:16.792Z,2.87
2019-05-25T10:45:47.803Z,2.83
2019-05-25T10:48:20.225Z,2.43
2019-05-25T10:50:51.611Z,2.77
2019-05-25T10:53:21.489Z,2.93
2019-05-25T10:55:51.337Z,2.60
2019-05-25T10:58:21.194Z,2.00
2019-05-25T11:00:51.302Z,2.60
2019-05-25T11:03:21.087Z,2.70
2019-05-25T11:05:54.766Z,2.17
2019-05-25T11:08:24.633Z,2.23
2019-05-25T11:10:54.332Z,2.53
2019-05-25T11:13:24.152Z,2.43
2019-05-25T11:15:53.913Z,2.37
2019-05-25T11:18:23.670Z,3.13
2019-05-25T11:21:01.275Z,3.13
2019-05-25T11:23:31.057Z,2.50
2019-05-25T11:26:00.945Z,4.10
2019-05-25T11:28:30.841Z,3.60
2019-05-25T11:31:00.842Z,3.80
2019-05-25T11:33:30.663Z,3.70
2019-05-25T11:36:00.657Z,4.10
2019-05-25T11:38:30.407Z,4.13
2019-05-25T11:41:09.220Z,3.87
2019-05-25T11:43:40.705Z,3.63
2019-05-25T11:46:10.686Z,2.90
2019-05-25T11:48:40.832Z,2.73
2019-05-25T11:51:10.599Z,2.83
2019-05-25T11:53:40.410Z,3.20
2019-05-25T11:56:10.263Z,2.87
2019-05-25T11:59:12.056Z,3.20
2019-05-25T12:01:41.950Z,3.07
2019-05-25T12:04:11.885Z,3.10
2019-05-25T12:06:41.684Z,3.10
2019-05-25T12:09:11.818Z,2.90
2019-05-25T12:11:41.674Z,2.80
2019-05-25T12:14:11.465Z,2.93
2019-05-25T12:16:41.225Z,3.07
2019-05-25T12:19:14.693Z,3.20
2019-05-25T12:21:42.684Z,3.13
2019-05-25T12:24:12.550Z,3.67
2019-05-25T12:26:43.137Z,3.20
2019-05-25T12:29:12.937Z,3.20
2019-05-25T12:31:42.840Z,3.63
2019-05-25T12:34:12.711Z,3.07
2019-05-25T12:36:42.470Z,3.37
2019-05-25T12:39:12.254Z,3.43
2019-05-25T12:41:42.502Z,3.20
2019-05-25T12:44:12.249Z,3.47
2019-05-25T12:46:42.006Z,3.90
2019-05-25T12:49:12.477Z,3.80
2019-05-25T12:51:42.286Z,3.60
2019-05-25T12:54:12.110Z,3.57
2019-05-25T12:56:42.004Z,3.97
2019-05-25T12:59:12.067Z,3.50
2019-05-25T13:01:41.834Z,3.27
2019-05-25T13:04:11.706Z,3.23
2019-05-25T13:06:41.448Z,2.90
2019-05-25T13:09:12.515Z,3.23
2019-05-25T13:11:42.439Z,3.20
2019-05-25T13:14:14.852Z,3.20
2019-05-25T13:16:43.630Z,2.90
2019-05-25T13:19:13.427Z,2.77
2019-05-25T13:21:43.529Z,2.57
2019-05-25T13:24:15.685Z,2.80
2019-05-25T13:26:45.535Z,3.10
2019-05-25T13:29:15.361Z,2.60
2019-05-25T13:31:45.150Z,2.40
2019-05-25T13:34:15.229Z,3.20
2019-05-25T13:36:45.272Z,3.10
2019-05-25T13:39:15.043Z,3.07
2019-05-25T13:41:44.970Z,2.90
2019-05-25T13:44:14.794Z,2.63
2019-05-25T13:46:44.841Z,2.80
2019-05-25T13:49:14.696Z,2.80
2019-05-25T13:51:44.581Z,2.90
2019-05-25T13:54:14.419Z,2.90
2019-05-25T13:56:44.232Z,2.70
2019-05-25T13:59:13.975Z,2.40
2019-05-25T14:01:45.008Z,2.77
2019-05-25T14:04:15.360Z,2.97
2019-05-25T14:06:45.086Z,2.60
2019-05-25T14:09:16.067Z,2.43
2019-05-25T14:11:46.083Z,2.90
2019-05-25T14:14:15.854Z,2.10
2019-05-25T14:16:45.667Z,2.30
2019-05-25T14:19:16.074Z,2.63
2019-05-25T14:21:45.826Z,2.50
2019-05-25T14:24:16.939Z,1.77
2019-05-25T14:26:46.844Z,1.90
2019-05-25T14:29:16.706Z,1.90
2019-05-25T14:31:46.560Z,1.73
2019-05-25T14:34:16.544Z,2.07
2019-05-25T14:36:46.485Z,2.00
2019-05-25T14:39:16.277Z,2.20
2019-05-25T14:41:46.165Z,2.23
2019-05-25T14:44:15.914Z,2.13
2019-05-25T14:46:46.092Z,2.07
2019-05-25T14:49:15.955Z,2.20
2019-05-25T14:51:45.769Z,2.10
2019-05-25T14:54:15.519Z,1.87
2019-05-25T14:56:49.911Z,2.03
2019-05-25T14:59:19.813Z,1.97
2019-05-25T15:02:01.867Z,2.07
2019-05-25T15:04:21.207Z,2.03
2019-05-25T15:06:51.306Z,2.20
2019-05-25T15:09:21.124Z,2.10
2019-05-25T15:11:53.814Z,2.20
2019-05-25T15:14:22.459Z,2.00
2019-05-25T15:16:52.594Z,2.00
2019-05-25T15:19:22.675Z,1.93
2019-05-25T15:21:52.519Z,1.70
2019-05-25T15:24:22.301Z,1.90
2019-05-25T15:26:52.217Z,2.07
2019-05-25T15:29:22.018Z,2.03
2019-05-25T15:31:52.090Z,2.30
2019-05-25T15:34:22.124Z,2.40
2019-05-25T15:36:51.911Z,1.80
2019-05-25T15:39:21.835Z,2.00
2019-05-25T15:41:51.775Z,2.40
2019-05-25T15:44:21.559Z,2.50
2019-05-25T15:46:51.729Z,2.20
2019-05-25T15:49:32.525Z,2.47
2019-05-25T15:51:53.481Z,2.80
2019-05-25T15:54:23.303Z,2.47
2019-05-25T15:56:53.246Z,2.20
2019-05-25T15:59:23.785Z,2.27
2019-05-25T16:01:54.039Z,2.77
2019-05-25T16:04:23.980Z,2.53
2019-05-25T16:06:53.841Z,2.50
2019-05-25T16:09:23.624Z,2.20
2019-05-25T16:11:53.535Z,2.40
2019-05-25T16:14:23.306Z,3.30
2019-05-25T16:16:54.405Z,2.40
2019-05-25T16:19:24.407Z,2.27
2019-05-25T16:21:54.211Z,2.37
2019-05-25T16:24:24.050Z,2.53
2019-05-25T16:26:56.337Z,2.77
2019-05-25T16:29:26.170Z,2.80
2019-05-25T16:31:56.287Z,2.50
2019-05-25T16:34:26.286Z,3.03
2019-05-25T16:36:58.580Z,2.57
2019-05-25T16:39:28.442Z,2.20
2019-05-25T16:41:58.457Z,2.70
2019-05-25T16:44:28.284Z,2.13
2019-05-25T16:46:59.611Z,2.70
2019-05-25T16:49:29.517Z,2.20
2019-05-25T16:51:59.330Z,2.30
2019-05-25T16:54:29.111Z,2.10
2019-05-25T16:56:59.120Z,2.30
2019-05-25T16:59:28.922Z,2.70
2019-05-25T17:01:59.169Z,2.50
2019-05-25T17:04:29.097Z,2.03
2019-05-25T17:06:58.916Z,2.60
2019-05-25T17:09:28.648Z,2.53
2019-05-25T17:11:58.576Z,2.43
2019-05-25T17:14:28.564Z,2.73
2019-05-25T17:16:59.675Z,2.30
2019-05-25T17:19:29.602Z,2.67
2019-05-25T17:21:59.352Z,2.87
2019-05-25T17:24:29.354Z,3.17
2019-05-25T17:26:59.395Z,2.20
2019-05-25T17:29:29.147Z,2.17
2019-05-25T17:32:01.513Z,2.30
2019-05-25T17:34:31.380Z,2.20
2019-05-25T17:37:01.213Z,2.30
2019-05-25T17:39:31.165Z,2.17
2019-05-25T17:42:01.010Z,2.23
2019-05-25T17:44:30.844Z,2.23
2019-05-25T17:47:04.219Z,2.17
2019-05-25T17:49:33.959Z,2.10
2019-05-25T17:52:03.783Z,1.90
2019-05-25T17:54:33.720Z,1.80
2019-05-25T17:57:03.607Z,2.10
2019-05-25T17:59:33.366Z,2.20
2019-05-25T18:02:05.026Z,3.83
2019-05-25T18:04:34.855Z,4.00
2019-05-25T18:07:05.182Z,3.87
2019-05-25T18:09:35.009Z,2.60
2019-05-25T18:12:05.011Z,2.10
2019-05-25T18:14:34.766Z,1.77
2019-05-25T18:17:07.022Z,2.90
2019-05-25T18:19:36.770Z,2.10
2019-05-25T18:22:06.651Z,2.20
2019-05-25T18:24:36.464Z,2.97
2019-05-25T18:27:06.499Z,2.93
2019-05-25T18:29:36.320Z,2.20
2019-05-25T18:32:06.684Z,2.27
2019-05-25T18:34:36.545Z,1.83
2019-05-25T18:37:06.338Z,1.80
